sensor_id;sensor_type;location;lat;lon;timestamp;pressure;altitude;pressure_sealevel;temperature;humidity
29315;BME280;16320;53.954;9.506;2023-05-10T00:00:48;100441.94;;;15.23;100.00
29315;BME280;16320;53.954;9.506;2023-05-10T00:03:53;100430.53;;;15.23;100.00
29315;BME280;16320;53.954;9.506;2023-05-10T00:06:58;100439.53;;;15.20;100.00
29315;BME280;16320;53.954;9.506;2023-05-10T00:10:03;100437.06;;;15.06;100.00
29315;BME280;16320;53.954;9.506;2023-05-10T00:13:07;100435.91;;;15.10;100.00
29315;BME280;16320;53.954;9.506;2023-05-10T00:16:11;100432.28;;;15.11;100.00
29315;BME280;16320;53.954;9.506;2023-05-10T00:19:20;100436.34;;;15.04;100.00
29315;BME280;16320;53.954;9.506;2023-05-10T00:22:26;100432.38;;;14.98;100.00
29315;BME280;16320;53.954;9.506;2023-05-10T00:25:34;100438.34;;;14.89;100.00
29315;BME280;16320;53.954;9.506;2023-05-10T00:29:02;100425.56;;;14.82;100.00
29315;BME280;16320;53.954;9.506;2023-05-10T00:33:01;100427.44;;;14.69;100.00
29315;BME280;16320;53.954;9.506;2023-05-10T00:36:53;100418.38;;;14.60;100.00
29315;BME280;16320;53.954;9.506;2023-05-10T00:40:47;100417.72;;;14.57;100.00
29315;BME280;16320;53.954;9.506;2023-05-10T00:43:57;100409.69;;;14.58;100.00
29315;BME280;16320;53.954;9.506;2023-05-10T00:52:33;100411.66;;;14.43;100.00
29315;BME280;16320;53.954;9.506;2023-05-10T00:56:07;100401.25;;;14.29;100.00
29315;BME280;16320;53.954;9.506;2023-05-10T00:59:35;100391.78;;;14.26;100.00
29315;BME280;16320;53.954;9.506;2023-05-10T01:02:41;100396.88;;;14.17;100.00
29315;BME280;16320;53.954;9.506;2023-05-10T01:05:51;100389.16;;;14.14;100.00
29315;BME280;16320;53.954;9.506;2023-05-10T01:08:59;100387.97;;;14.18;100.00
29315;BME280;16320;53.954;9.506;2023-05-10T01:12:09;100383.13;;;14.12;100.00
29315;BME280;16320;53.954;9.506;2023-05-10T01:15:18;100385.78;;;14.12;100.00
29315;BME280;16320;53.954;9.506;2023-05-10T01:18:25;100382.41;;;14.09;100.00
29315;BME280;16320;53.954;9.506;2023-05-10T01:22:06;100388.13;;;14.03;100.00
29315;BME280;16320;53.954;9.506;2023-05-10T01:36:38;100382.88;;;13.78;100.00
29315;BME280;16320;53.954;9.506;2023-05-10T01:40:37;100378.78;;;13.73;100.00
29315;BME280;16320;53.954;9.506;2023-05-10T01:52:55;100378.91;;;13.59;100.00
29315;BME280;16320;53.954;9.506;2023-05-10T01:56:08;100373.63;;;13.59;100.00
29315;BME280;16320;53.954;9.506;2023-05-10T01:59:19;100369.31;;;13.58;100.00
29315;BME280;16320;53.954;9.506;2023-05-10T02:02:27;100368.78;;;13.53;100.00
29315;BME280;16320;53.954;9.506;2023-05-10T02:05:34;100367.53;;;13.46;100.00
29315;BME280;16320;53.954;9.506;2023-05-10T02:08:46;100374.41;;;13.35;100.00
29315;BME280;16320;53.954;9.506;2023-05-10T02:11:54;100365.44;;;13.38;100.00
29315;BME280;16320;53.954;9.506;2023-05-10T02:15:08;100363.63;;;13.39;100.00
29315;BME280;16320;53.954;9.506;2023-05-10T02:18:18;100364.97;;;13.31;100.00
29315;BME280;16320;53.954;9.506;2023-05-10T02:21:28;100361.28;;;13.21;100.00
29315;BME280;16320;53.954;9.506;2023-05-10T02:24:36;100365.38;;;13.25;100.00
29315;BME280;16320;53.954;9.506;2023-05-10T02:27:48;100367.28;;;13.23;100.00
29315;BME280;16320;53.954;9.506;2023-05-10T02:30:55;100365.81;;;13.19;100.00
29315;BME280;16320;53.954;9.506;2023-05-10T02:34:07;100381.41;;;13.09;100.00
29315;BME280;16320;53.954;9.506;2023-05-10T02:37:41;100374.03;;;13.02;100.00
29315;BME280;16320;53.954;9.506;2023-05-10T02:40:59;100381.38;;;12.96;100.00
29315;BME280;16320;53.954;9.506;2023-05-10T02:44:11;100367.47;;;12.94;100.00
29315;BME280;16320;53.954;9.506;2023-05-10T02:47:19;100367.06;;;13.00;100.00
29315;BME280;16320;53.954;9.506;2023-05-10T02:50:33;100365.56;;;12.96;100.00
29315;BME280;16320;53.954;9.506;2023-05-10T02:54:10;100366.75;;;12.92;100.00
29315;BME280;16320;53.954;9.506;2023-05-10T02:57:28;100371.16;;;12.79;100.00
29315;BME280;16320;53.954;9.506;2023-05-10T03:00:48;100370.38;;;12.77;100.00
29315;BME280;16320;53.954;9.506;2023-05-10T03:04:08;100359.00;;;12.76;100.00
29315;BME280;16320;53.954;9.506;2023-05-10T03:07:18;100361.53;;;12.78;100.00
29315;BME280;16320;53.954;9.506;2023-05-10T03:10:28;100357.22;;;12.77;100.00
29315;BME280;16320;53.954;9.506;2023-05-10T03:21:07;100352.97;;;12.61;100.00
29315;BME280;16320;53.954;9.506;2023-05-10T03:24:19;100355.59;;;12.61;100.00
29315;BME280;16320;53.954;9.506;2023-05-10T03:27:32;100361.28;;;12.55;100.00
29315;BME280;16320;53.954;9.506;2023-05-10T03:31:10;100357.28;;;12.50;100.00
29315;BME280;16320;53.954;9.506;2023-05-10T03:34:24;100361.88;;;12.46;100.00
29315;BME280;16320;53.954;9.506;2023-05-10T03:37:32;100354.72;;;12.48;100.00
29315;BME280;16320;53.954;9.506;2023-05-10T03:40:39;100360.19;;;12.45;100.00
29315;BME280;16320;53.954;9.506;2023-05-10T03:43:46;100367.47;;;12.41;100.00
29315;BME280;16320;53.954;9.506;2023-05-10T03:46:52;100368.78;;;12.34;100.00
29315;BME280;16320;53.954;9.506;2023-05-10T03:49:58;100372.28;;;12.35;100.00
29315;BME280;16320;53.954;9.506;2023-05-10T03:53:03;100369.53;;;12.36;100.00
29315;BME280;16320;53.954;9.506;2023-05-10T03:56:11;100369.66;;;12.35;100.00
29315;BME280;16320;53.954;9.506;2023-05-10T03:59:16;100362.88;;;12.31;100.00
29315;BME280;16320;53.954;9.506;2023-05-10T04:02:22;100364.97;;;12.25;100.00
29315;BME280;16320;53.954;9.506;2023-05-10T04:05:29;100364.97;;;12.25;100.00
29315;BME280;16320;53.954;9.506;2023-05-10T04:08:35;100358.00;;;12.24;100.00
29315;BME280;16320;53.954;9.506;2023-05-10T04:11:42;100354.63;;;12.22;100.00
29315;BME280;16320;53.954;9.506;2023-05-10T04:14:51;100358.19;;;12.21;100.00
29315;BME280;16320;53.954;9.506;2023-05-10T04:18:13;100357.16;;;12.24;100.00
29315;BME280;16320;53.954;9.506;2023-05-10T04:21:20;100352.75;;;12.24;100.00
29315;BME280;16320;53.954;9.506;2023-05-10T04:24:25;100351.72;;;12.27;100.00
29315;BME280;16320;53.954;9.506;2023-05-10T04:27:32;100356.34;;;12.23;100.00
29315;BME280;16320;53.954;9.506;2023-05-10T04:30:39;100356.34;;;12.23;100.00
29315;BME280;16320;53.954;9.506;2023-05-10T04:33:46;100343.72;;;12.29;100.00
29315;BME280;16320;53.954;9.506;2023-05-10T04:36:54;100347.09;;;12.31;100.00
29315;BME280;16320;53.954;9.506;2023-05-10T04:40:31;100357.81;;;12.27;100.00
29315;BME280;16320;53.954;9.506;2023-05-10T04:43:41;100356.69;;;12.32;100.00
29315;BME280;16320;53.954;9.506;2023-05-10T04:46:50;100349.03;;;12.41;100.00
29315;BME280;16320;53.954;9.506;2023-05-10T04:49:59;100351.34;;;12.46;100.00
29315;BME280;16320;53.954;9.506;2023-05-10T04:52:53;100348.41;;;12.51;100.00
29315;BME280;16320;53.954;9.506;2023-05-10T04:55:58;100348.00;;;12.57;100.00
29315;BME280;16320;53.954;9.506;2023-05-10T04:59:02;100346.97;;;12.59;100.00
29315;BME280;16320;53.954;9.506;2023-05-10T05:02:07;100348.44;;;12.63;100.00
29315;BME280;16320;53.954;9.506;2023-05-10T05:05:12;100356.03;;;12.68;100.00
29315;BME280;16320;53.954;9.506;2023-05-10T05:08:17;100356.88;;;12.69;100.00
29315;BME280;16320;53.954;9.506;2023-05-10T05:11:22;100358.19;;;12.76;100.00
29315;BME280;16320;53.954;9.506;2023-05-10T05:14:26;100354.38;;;12.80;100.00
29315;BME280;16320;53.954;9.506;2023-05-10T05:21:27;100353.13;;;12.86;100.00
29315;BME280;16320;53.954;9.506;2023-05-10T05:25:31;100355.25;;;12.80;100.00
29315;BME280;16320;53.954;9.506;2023-05-10T05:30:19;100348.91;;;12.83;100.00
29315;BME280;16320;53.954;9.506;2023-05-10T05:34:03;100347.03;;;12.85;100.00
29315;BME280;16320;53.954;9.506;2023-05-10T05:38:06;100349.44;;;12.88;100.00
29315;BME280;16320;53.954;9.506;2023-05-10T05:41:11;100348.69;;;12.86;100.00
29315;BME280;16320;53.954;9.506;2023-05-10T05:44:25;100353.75;;;12.89;100.00
29315;BME280;16320;53.954;9.506;2023-05-10T05:47:50;100364.50;;;12.86;100.00
29315;BME280;16320;53.954;9.506;2023-05-10T05:51:43;100375.25;;;12.83;100.00
29315;BME280;16320;53.954;9.506;2023-05-10T05:55:01;100364.84;;;12.94;100.00
29315;BME280;16320;53.954;9.506;2023-05-10T06:02:56;100385.53;;;13.00;100.00
29315;BME280;16320;53.954;9.506;2023-05-10T06:06:20;100363.81;;;13.10;100.00
29315;BME280;16320;53.954;9.506;2023-05-10T06:09:40;100370.25;;;13.18;100.00
29315;BME280;16320;53.954;9.506;2023-05-10T06:17:32;100371.78;;;13.35;100.00
29315;BME280;16320;53.954;9.506;2023-05-10T06:20:48;100365.72;;;13.46;100.00
29315;BME280;16320;53.954;9.506;2023-05-10T06:24:02;100371.53;;;13.51;100.00
29315;BME280;16320;53.954;9.506;2023-05-10T06:27:19;100360.34;;;13.61;100.00
29315;BME280;16320;53.954;9.506;2023-05-10T06:34:38;100379.66;;;13.61;100.00
29315;BME280;16320;53.954;9.506;2023-05-10T06:38:43;100367.53;;;13.59;100.00
29315;BME280;16320;53.954;9.506;2023-05-10T06:42:01;100375.34;;;13.60;100.00
29315;BME280;16320;53.954;9.506;2023-05-10T06:45:12;100381.84;;;13.67;100.00
29315;BME280;16320;53.954;9.506;2023-05-10T06:48:20;100379.72;;;13.72;100.00
29315;BME280;16320;53.954;9.506;2023-05-10T06:51:27;100392.00;;;13.73;100.00
29315;BME280;16320;53.954;9.506;2023-05-10T06:54:33;100377.41;;;13.81;100.00
29315;BME280;16320;53.954;9.506;2023-05-10T06:57:39;100375.72;;;13.93;100.00
29315;BME280;16320;53.954;9.506;2023-05-10T07:00:46;100377.13;;;14.09;100.00
29315;BME280;16320;53.954;9.506;2023-05-10T07:03:54;100386.25;;;14.05;100.00
29315;BME280;16320;53.954;9.506;2023-05-10T07:07:01;100393.59;;;14.13;100.00
29315;BME280;16320;53.954;9.506;2023-05-10T07:10:08;100391.88;;;14.25;100.00
29315;BME280;16320;53.954;9.506;2023-05-10T07:13:13;100393.28;;;14.42;100.00
29315;BME280;16320;53.954;9.506;2023-05-10T07:16:20;100406.81;;;14.37;100.00
29315;BME280;16320;53.954;9.506;2023-05-10T07:19:27;100390.75;;;14.40;100.00
29315;BME280;16320;53.954;9.506;2023-05-10T07:22:35;100396.25;;;14.37;100.00
29315;BME280;16320;53.954;9.506;2023-05-10T07:25:41;100406.00;;;14.37;100.00
29315;BME280;16320;53.954;9.506;2023-05-10T07:28:46;100402.31;;;14.51;100.00
29315;BME280;16320;53.954;9.506;2023-05-10T07:31:53;100405.66;;;14.41;100.00
29315;BME280;16320;53.954;9.506;2023-05-10T07:34:52;100406.88;;;14.49;100.00
29315;BME280;16320;53.954;9.506;2023-05-10T07:38:02;100409.75;;;14.45;100.00
29315;BME280;16320;53.954;9.506;2023-05-10T07:41:11;100397.91;;;14.51;100.00
29315;BME280;16320;53.954;9.506;2023-05-10T07:44:15;100400.66;;;14.50;100.00
29315;BME280;16320;53.954;9.506;2023-05-10T07:47:22;100404.50;;;14.57;100.00
29315;BME280;16320;53.954;9.506;2023-05-10T07:50:27;100409.06;;;14.68;100.00
29315;BME280;16320;53.954;9.506;2023-05-10T07:53:31;100409.88;;;14.68;100.00
29315;BME280;16320;53.954;9.506;2023-05-10T07:56:36;100400.56;;;14.75;100.00
29315;BME280;16320;53.954;9.506;2023-05-10T07:59:40;100397.31;;;14.83;100.00
29315;BME280;16320;53.954;9.506;2023-05-10T08:02:46;100410.66;;;14.81;100.00
29315;BME280;16320;53.954;9.506;2023-05-10T08:05:51;100416.69;;;14.83;100.00
29315;BME280;16320;53.954;9.506;2023-05-10T08:08:55;100408.28;;;14.90;100.00
29315;BME280;16320;53.954;9.506;2023-05-10T08:12:00;100416.03;;;15.04;100.00
29315;BME280;16320;53.954;9.506;2023-05-10T08:15:05;100422.09;;;15.17;100.00
29315;BME280;16320;53.954;9.506;2023-05-10T08:18:10;100428.81;;;15.22;100.00
29315;BME280;16320;53.954;9.506;2023-05-10T08:21:15;100431.72;;;15.30;100.00
29315;BME280;16320;53.954;9.506;2023-05-10T08:24:21;100428.13;;;15.31;100.00
29315;BME280;16320;53.954;9.506;2023-05-10T08:27:25;100431.81;;;15.17;100.00
29315;BME280;16320;53.954;9.506;2023-05-10T08:30:29;100427.84;;;15.11;100.00
29315;BME280;16320;53.954;9.506;2023-05-10T08:33:33;100429.78;;;15.20;100.00
29315;BME280;16320;53.954;9.506;2023-05-10T08:36:38;100432.78;;;15.16;100.00
29315;BME280;16320;53.954;9.506;2023-05-10T08:39:42;100432.03;;;15.14;100.00
29315;BME280;16320;53.954;9.506;2023-05-10T08:42:54;100439.25;;;15.12;100.00
29315;BME280;16320;53.954;9.506;2023-05-10T08:46:05;100454.28;;;15.11;100.00
29315;BME280;16320;53.954;9.506;2023-05-10T08:49:16;100458.72;;;15.11;100.00
29315;BME280;16320;53.954;9.506;2023-05-10T08:52:24;100466.06;;;15.07;100.00
29315;BME280;16320;53.954;9.506;2023-05-10T08:55:33;100487.31;;;15.06;100.00
29315;BME280;16320;53.954;9.506;2023-05-10T08:58:45;100483.34;;;15.00;100.00
29315;BME280;16320;53.954;9.506;2023-05-10T09:01:57;100493.88;;;14.89;100.00
29315;BME280;16320;53.954;9.506;2023-05-10T09:05:05;100501.03;;;14.75;100.00
29315;BME280;16320;53.954;9.506;2023-05-10T09:08:09;100502.13;;;14.60;100.00
29315;BME280;16320;53.954;9.506;2023-05-10T09:11:16;100510.59;;;14.39;100.00
29315;BME280;16320;53.954;9.506;2023-05-10T09:14:23;100518.78;;;14.23;100.00
29315;BME280;16320;53.954;9.506;2023-05-10T09:17:30;100540.66;;;14.13;100.00
29315;BME280;16320;53.954;9.506;2023-05-10T09:20:35;100545.41;;;14.07;100.00
29315;BME280;16320;53.954;9.506;2023-05-10T09:23:44;100549.72;;;14.08;100.00
29315;BME280;16320;53.954;9.506;2023-05-10T09:26:51;100559.03;;;14.01;100.00
29315;BME280;16320;53.954;9.506;2023-05-10T09:29:56;100563.06;;;13.94;100.00
29315;BME280;16320;53.954;9.506;2023-05-10T09:33:01;100566.00;;;13.89;100.00
29315;BME280;16320;53.954;9.506;2023-05-10T09:36:07;100579.50;;;13.85;100.00
29315;BME280;16320;53.954;9.506;2023-05-10T09:39:12;100577.47;;;13.76;100.00
29315;BME280;16320;53.954;9.506;2023-05-10T09:42:18;100585.81;;;13.69;100.00
29315;BME280;16320;53.954;9.506;2023-05-10T09:45:25;100584.75;;;13.59;100.00
29315;BME280;16320;53.954;9.506;2023-05-10T09:48:30;100594.66;;;13.55;100.00
29315;BME280;16320;53.954;9.506;2023-05-10T09:51:35;100594.84;;;13.52;100.00
29315;BME280;16320;53.954;9.506;2023-05-10T09:54:52;100594.66;;;13.55;100.00
29315;BME280;16320;53.954;9.506;2023-05-10T09:58:01;100598.88;;;13.58;100.00
29315;BME280;16320;53.954;9.506;2023-05-10T10:01:11;100595.28;;;13.59;100.00
29315;BME280;16320;53.954;9.506;2023-05-10T10:04:20;100595.50;;;13.56;100.00
29315;BME280;16320;53.954;9.506;2023-05-10T10:07:26;100599.09;;;13.55;100.00
29315;BME280;16320;53.954;9.506;2023-05-10T10:10:33;100605.63;;;13.49;100.00
29315;BME280;16320;53.954;9.506;2023-05-10T10:13:37;100607.72;;;13.44;100.00
29315;BME280;16320;53.954;9.506;2023-05-10T10:16:42;100609.19;;;13.35;100.00
29315;BME280;16320;53.954;9.506;2023-05-10T10:20:07;100623.66;;;13.28;100.00
29315;BME280;16320;53.954;9.506;2023-05-10T10:23:15;100628.59;;;13.20;100.00
29315;BME280;16320;53.954;9.506;2023-05-10T10:26:21;100642.16;;;13.14;100.00
29315;BME280;16320;53.954;9.506;2023-05-10T10:29:36;100650.53;;;13.06;100.00
29315;BME280;16320;53.954;9.506;2023-05-10T10:36:46;100662.97;;;13.04;100.00
29315;BME280;16320;53.954;9.506;2023-05-10T10:39:51;100665.72;;;13.03;100.00
29315;BME280;16320;53.954;9.506;2023-05-10T10:42:57;100677.78;;;13.07;100.00
29315;BME280;16320;53.954;9.506;2023-05-10T10:46:11;100688.41;;;13.19;100.00
29315;BME280;16320;53.954;9.506;2023-05-10T10:49:17;100689.97;;;13.22;100.00
29315;BME280;16320;53.954;9.506;2023-05-10T10:52:33;100692.63;;;13.22;100.00
29315;BME280;16320;53.954;9.506;2023-05-10T10:55:48;100697.88;;;13.22;100.00
29315;BME280;16320;53.954;9.506;2023-05-10T10:58:52;100704.69;;;13.26;100.00
29315;BME280;16320;53.954;9.506;2023-05-10T11:01:58;100707.88;;;13.31;100.00
29315;BME280;16320;53.954;9.506;2023-05-10T11:08:42;100717.28;;;13.50;100.00
29315;BME280;16320;53.954;9.506;2023-05-10T11:11:52;100720.06;;;13.61;100.00
29315;BME280;16320;53.954;9.506;2023-05-10T11:15:03;100732.88;;;13.67;100.00
29315;BME280;16320;53.954;9.506;2023-05-10T11:18:31;100742.09;;;13.75;100.00
29315;BME280;16320;53.954;9.506;2023-05-10T11:24:57;100742.78;;;13.91;100.00
29315;BME280;16320;53.954;9.506;2023-05-10T11:28:04;100752.03;;;13.84;100.00
29315;BME280;16320;53.954;9.506;2023-05-10T11:31:10;100759.06;;;13.70;100.00
29315;BME280;16320;53.954;9.506;2023-05-10T11:34:29;100768.34;;;13.63;100.00
29315;BME280;16320;53.954;9.506;2023-05-10T11:37:41;100769.75;;;13.54;100.00
29315;BME280;16320;53.954;9.506;2023-05-10T11:40:51;100770.09;;;13.35;100.00
29315;BME280;16320;53.954;9.506;2023-05-10T11:43:57;100771.56;;;13.25;100.00
29315;BME280;16320;53.954;9.506;2023-05-10T11:47:02;100781.72;;;13.17;100.00
29315;BME280;16320;53.954;9.506;2023-05-10T11:50:07;100780.16;;;13.14;100.00
29315;BME280;16320;53.954;9.506;2023-05-10T11:53:13;100778.91;;;13.20;100.00
29315;BME280;16320;53.954;9.506;2023-05-10T11:56:17;100791.34;;;13.18;100.00
29315;BME280;16320;53.954;9.506;2023-05-10T11:59:21;100798.69;;;13.13;100.00
29315;BME280;16320;53.954;9.506;2023-05-10T12:02:26;100802.47;;;13.09;100.00
29315;BME280;16320;53.954;9.506;2023-05-10T12:05:35;100803.69;;;13.03;100.00
29315;BME280;16320;53.954;9.506;2023-05-10T12:08:45;100807.25;;;13.02;100.00
29315;BME280;16320;53.954;9.506;2023-05-10T12:11:55;100810.63;;;13.04;100.00
29315;BME280;16320;53.954;9.506;2023-05-10T12:15:02;100824.56;;;13.06;100.00
29315;BME280;16320;53.954;9.506;2023-05-10T12:18:10;100809.25;;;13.13;100.00
29315;BME280;16320;53.954;9.506;2023-05-10T12:21:15;100819.78;;;13.13;100.00
29315;BME280;16320;53.954;9.506;2023-05-10T12:24:20;100823.19;;;13.15;100.00
29315;BME280;16320;53.954;9.506;2023-05-10T12:27:25;100829.19;;;13.17;100.00
29315;BME280;16320;53.954;9.506;2023-05-10T12:30:36;100829.41;;;13.28;100.00
29315;BME280;16320;53.954;9.506;2023-05-10T12:33:43;100833.69;;;13.45;100.00
29315;BME280;16320;53.954;9.506;2023-05-10T12:36:54;100834.25;;;13.50;100.00
29315;BME280;16320;53.954;9.506;2023-05-10T12:39:59;100842.06;;;13.52;100.00
29315;BME280;16320;53.954;9.506;2023-05-10T12:43:05;100849.56;;;13.58;100.00
29315;BME280;16320;53.954;9.506;2023-05-10T12:46:17;100859.09;;;13.61;100.00
29315;BME280;16320;53.954;9.506;2023-05-10T12:49:22;100857.13;;;13.64;100.00
29315;BME280;16320;53.954;9.506;2023-05-10T12:52:26;100859.47;;;13.69;100.00
29315;BME280;16320;53.954;9.506;2023-05-10T12:55:30;100863.72;;;13.71;100.00
29315;BME280;16320;53.954;9.506;2023-05-10T12:58:35;100864.28;;;13.77;100.00
29315;BME280;16320;53.954;9.506;2023-05-10T13:01:39;100865.03;;;13.79;100.00
29315;BME280;16320;53.954;9.506;2023-05-10T13:04:44;100866.03;;;13.90;100.00
29315;BME280;16320;53.954;9.506;2023-05-10T13:07:53;100871.03;;;13.95;100.00
29315;BME280;16320;53.954;9.506;2023-05-10T13:10:57;100873.19;;;14.03;100.00
29315;BME280;16320;53.954;9.506;2023-05-10T13:14:02;100876.66;;;14.03;100.00
29315;BME280;16320;53.954;9.506;2023-05-10T13:17:07;100881.56;;;14.09;100.00
29315;BME280;16320;53.954;9.506;2023-05-10T13:20:12;100887.00;;;14.21;100.00
29315;BME280;16320;53.954;9.506;2023-05-10T13:23:17;100884.06;;;14.25;100.00
29315;BME280;16320;53.954;9.506;2023-05-10T13:26:21;100884.81;;;14.27;100.00
29315;BME280;16320;53.954;9.506;2023-05-10T13:29:26;100881.47;;;14.38;100.00
29315;BME280;16320;53.954;9.506;2023-05-10T13:32:30;100883.53;;;14.48;100.00
29315;BME280;16320;53.954;9.506;2023-05-10T13:35:35;100886.56;;;14.41;100.00
29315;BME280;16320;53.954;9.506;2023-05-10T13:55:10;100895.75;;;14.63;100.00
29315;BME280;16320;53.954;9.506;2023-05-10T13:58:29;100897.13;;;14.69;100.00
29315;BME280;16320;53.954;9.506;2023-05-10T14:01:54;100896.28;;;14.68;100.00
29315;BME280;16320;53.954;9.506;2023-05-10T14:05:07;100896.94;;;14.72;100.00
29315;BME280;16320;53.954;9.506;2023-05-10T14:08:17;100903.28;;;14.69;100.00
29315;BME280;16320;53.954;9.506;2023-05-10T14:11:25;100907.94;;;14.66;100.00
29315;BME280;16320;53.954;9.506;2023-05-10T14:14:39;100904.03;;;14.71;100.00
29315;BME280;16320;53.954;9.506;2023-05-10T14:17:48;100908.16;;;14.75;100.00
29315;BME280;16320;53.954;9.506;2023-05-10T14:20:58;100906.81;;;14.82;100.00
29315;BME280;16320;53.954;9.506;2023-05-10T14:24:11;100906.28;;;14.90;100.00
29315;BME280;16320;53.954;9.506;2023-05-10T14:27:16;100908.84;;;14.92;100.00
29315;BME280;16320;53.954;9.506;2023-05-10T14:30:26;100909.69;;;15.05;100.00
29315;BME280;16320;53.954;9.506;2023-05-10T14:33:39;100905.47;;;15.15;100.00
29315;BME280;16320;53.954;9.506;2023-05-10T14:36:47;100910.34;;;15.09;100.00
29315;BME280;16320;53.954;9.506;2023-05-10T14:40:02;100908.00;;;15.04;100.00
29315;BME280;16320;53.954;9.506;2023-05-10T14:43:11;100899.53;;;14.99;100.00
29315;BME280;16320;53.954;9.506;2023-05-10T14:46:18;100900.38;;;14.87;100.00
29315;BME280;16320;53.954;9.506;2023-05-10T14:49:26;100900.56;;;14.83;100.00
29315;BME280;16320;53.954;9.506;2023-05-10T14:52:30;100902.00;;;14.75;100.00
29315;BME280;16320;53.954;9.506;2023-05-10T14:55:37;100895.69;;;14.77;100.00
29315;BME280;16320;53.954;9.506;2023-05-10T14:58:42;100900.78;;;14.80;100.00
29315;BME280;16320;53.954;9.506;2023-05-10T15:01:48;100902.88;;;14.75;100.00
29315;BME280;16320;53.954;9.506;2023-05-10T15:04:53;100907.69;;;14.69;100.00
29315;BME280;16320;53.954;9.506;2023-05-10T15:07:57;100906.66;;;14.71;100.00
29315;BME280;16320;53.954;9.506;2023-05-10T15:11:02;100911.94;;;14.71;100.00
29315;BME280;16320;53.954;9.506;2023-05-10T15:14:06;100906.25;;;14.77;100.00
29315;BME280;16320;53.954;9.506;2023-05-10T15:17:11;100905.53;;;14.75;100.00
29315;BME280;16320;53.954;9.506;2023-05-10T15:20:15;100902.53;;;14.80;100.00
29315;BME280;16320;53.954;9.506;2023-05-10T15:23:20;100911.16;;;14.83;100.00
29315;BME280;16320;53.954;9.506;2023-05-10T15:26:24;100917.91;;;14.88;100.00
29315;BME280;16320;53.954;9.506;2023-05-10T15:29:30;100915.78;;;14.80;100.00
29315;BME280;16320;53.954;9.506;2023-05-10T15:32:35;100916.09;;;14.88;100.00
29315;BME280;16320;53.954;9.506;2023-05-10T15:35:40;100922.88;;;14.79;100.00
29315;BME280;16320;53.954;9.506;2023-05-10T15:38:45;100923.06;;;14.76;100.00
29315;BME280;16320;53.954;9.506;2023-05-10T15:41:49;100925.91;;;14.73;100.00
29315;BME280;16320;53.954;9.506;2023-05-10T15:44:53;100925.50;;;14.79;100.00
29315;BME280;16320;53.954;9.506;2023-05-10T15:47:58;100937.69;;;14.82;100.00
29315;BME280;16320;53.954;9.506;2023-05-10T15:51:05;100923.38;;;14.72;100.00
29315;BME280;16320;53.954;9.506;2023-05-10T15:54:09;100931.34;;;14.85;100.00
29315;BME280;16320;53.954;9.506;2023-05-10T15:57:14;100934.59;;;14.75;100.00
29315;BME280;16320;53.954;9.506;2023-05-10T16:00:19;100941.19;;;14.82;100.00
29315;BME280;16320;53.954;9.506;2023-05-10T16:03:23;100939.28;;;14.85;100.00
29315;BME280;16320;53.954;9.506;2023-05-10T16:06:28;100944.75;;;14.81;100.00
29315;BME280;16320;53.954;9.506;2023-05-10T16:09:32;100942.19;;;14.67;100.00
29315;BME280;16320;53.954;9.506;2023-05-10T16:12:37;100942.75;;;14.58;100.00
29315;BME280;16320;53.954;9.506;2023-05-10T16:15:42;100955.22;;;14.56;100.00
29315;BME280;16320;53.954;9.506;2023-05-10T16:18:47;100960.72;;;14.53;100.00
29315;BME280;16320;53.954;9.506;2023-05-10T16:21:52;100956.84;;;14.44;100.00
29315;BME280;16320;53.954;9.506;2023-05-10T16:24:58;100956.31;;;14.39;100.00
29315;BME280;16320;53.954;9.506;2023-05-10T16:28:02;100963.19;;;14.41;100.00
29315;BME280;16320;53.954;9.506;2023-05-10T16:31:07;100967.03;;;14.50;100.00
29315;BME280;16320;53.954;9.506;2023-05-10T16:34:11;100969.78;;;14.49;100.00
29315;BME280;16320;53.954;9.506;2023-05-10T16:41:05;100987.34;;;14.50;100.00
29315;BME280;16320;53.954;9.506;2023-05-10T16:44:32;100993.28;;;14.39;100.00
29315;BME280;16320;53.954;9.506;2023-05-10T16:47:55;101003.97;;;14.37;100.00
29315;BME280;16320;53.954;9.506;2023-05-10T16:51:34;101012.09;;;14.20;100.00
29315;BME280;16320;53.954;9.506;2023-05-10T16:55:13;101012.41;;;14.01;100.00
29315;BME280;16320;53.954;9.506;2023-05-10T16:58:45;101010.22;;;13.93;100.00
29315;BME280;16320;53.954;9.506;2023-05-10T17:02:20;101010.69;;;13.85;100.00
29315;BME280;16320;53.954;9.506;2023-05-10T17:05:51;101021.34;;;13.84;100.00
29315;BME280;16320;53.954;9.506;2023-05-10T17:14:03;101048.50;;;13.71;100.00
29315;BME280;16320;53.954;9.506;2023-05-10T17:17:27;101050.34;;;13.55;100.00
29315;BME280;16320;53.954;9.506;2023-05-10T17:21:36;101050.66;;;13.34;100.00
29315;BME280;16320;53.954;9.506;2023-05-10T17:25:59;101068.94;;;13.22;100.00
29315;BME280;16320;53.954;9.506;2023-05-10T17:29:44;101068.63;;;13.12;100.00
29315;BME280;16320;53.954;9.506;2023-05-10T17:33:28;101074.16;;;13.07;100.00
29315;BME280;16320;53.954;9.506;2023-05-10T17:47:07;101105.13;;;13.04;100.00
29315;BME280;16320;53.954;9.506;2023-05-10T17:50:31;101100.59;;;13.06;100.00
29315;BME280;16320;53.954;9.506;2023-05-10T17:53:42;101122.81;;;13.02;100.00
29315;BME280;16320;53.954;9.506;2023-05-10T17:56:49;101115.84;;;13.00;100.00
29315;BME280;16320;53.954;9.506;2023-05-10T18:00:18;101130.91;;;12.98;100.00
29315;BME280;16320;53.954;9.506;2023-05-10T18:03:23;101140.78;;;12.95;100.00
29315;BME280;16320;53.954;9.506;2023-05-10T18:06:27;101140.75;;;12.79;100.00